Time;durP1;ratioP1;P1;durP2;ratioP2;P2;SDS_P1;SDS_P2;PMS_P1;PMS_P2;Temp;Humidity;BMP_temperature;BMP_pressure;BME280_temperature;BME280_humidity;BME280_pressure;Samples;Min_cycle;Max_cycle;Signal;HPM_P1;HPM_P2
2023/06/22 00:00:00;;;;;;;8.90;6.10;;;;;;;23.15;89.39;98204.69;4161206;28;20800;-81
2023/06/22 00:02:34;;;;;;;6.73;5.60;;;;;;;23.13;90.72;98204.03;4156414;28;20623;-81
2023/06/22 00:04:57;;;;;;;6.60;5.60;;;;;;;23.13;90.56;98191.53;4166693;28;20620;-81
2023/06/22 00:07:19;;;;;;;8.67;5.90;;;;;;;23.12;90.68;98200.53;4148739;28;20651;-81
2023/06/22 00:09:42;;;;;;;10.97;5.83;;;;;;;23.11;91.33;98195.38;4154382;28;20635;-81
2023/06/22 00:12:04;;;;;;;7.80;6.40;;;;;;;23.07;90.59;98184.28;4174464;28;20645;-80
2023/06/22 00:14:27;;;;;;;7.67;5.53;;;;;;;22.99;91.14;98179.03;4162884;28;20627;-81
2023/06/22 00:16:49;;;;;;;7.13;5.53;;;;;;;22.94;91.26;98178.75;4172206;28;20632;-81
2023/06/22 00:19:13;;;;;;;6.63;5.80;;;;;;;22.89;91.44;98173.09;4167900;28;20656;-81
2023/06/22 00:21:35;;;;;;;7.10;6.33;;;;;;;22.86;91.60;98177.94;4167912;28;20758;-81
2023/06/22 00:23:58;;;;;;;7.07;5.90;;;;;;;22.83;91.69;98176.47;4169207;28;20742;-80
2023/06/22 00:26:20;;;;;;;6.30;5.40;;;;;;;22.82;91.76;98174.81;4168578;28;20693;-80
2023/06/22 00:28:43;;;;;;;8.53;6.07;;;;;;;22.82;92.12;98177.47;4149615;28;20634;-81
2023/06/22 00:30:50;;;;;;;7.00;5.13;;;;;;;22.81;91.90;98191.78;4145442;28;20727;-80
2023/06/22 00:32:54;;;;;;;7.67;6.10;;;;;;;22.82;92.55;98182.81;4134112;28;20662;-80
2023/06/22 00:35:00;;;;;;;8.00;6.50;;;;;;;22.76;91.51;98185.31;4154409;28;20637;-81
2023/06/22 00:37:05;;;;;;;8.00;6.17;;;;;;;22.81;91.36;98172.34;4158430;28;21382;-80
2023/06/22 00:39:10;;;;;;;8.53;6.73;;;;;;;22.84;90.74;98170.13;4167827;28;20636;-81
2023/06/22 00:41:13;;;;;;;8.53;6.07;;;;;;;22.87;91.08;98168.97;4152053;28;20697;-80
2023/06/22 00:43:17;;;;;;;8.90;5.70;;;;;;;22.87;91.69;98185.75;4162582;28;20695;-81
2023/06/22 00:45:20;;;;;;;7.73;6.20;;;;;;;22.88;92.24;98173.25;4170344;28;21034;-80
2023/06/22 00:47:25;;;;;;;7.87;6.23;;;;;;;22.88;91.31;98170.59;4159323;28;21289;-81
2023/06/22 00:49:28;;;;;;;8.33;6.23;;;;;;;22.88;91.45;98182.09;4170891;28;20760;-80
2023/06/22 00:51:33;;;;;;;7.07;5.90;;;;;;;22.88;91.90;98183.91;4169187;28;20655;-81
2023/06/22 00:53:37;;;;;;;6.50;5.37;;;;;;;22.84;91.83;98179.97;4161809;28;20807;-80
2023/06/22 00:55:44;;;;;;;7.13;5.40;;;;;;;22.79;91.52;98167.19;4151844;28;20687;-81
2023/06/22 00:57:48;;;;;;;6.60;5.90;;;;;;;22.74;91.47;98169.53;4145358;28;22626;-81
2023/06/22 00:59:51;;;;;;;7.00;5.67;;;;;;;22.72;92.44;98186.72;4151237;28;21112;-81
2023/06/22 01:01:55;;;;;;;7.73;6.37;;;;;;;22.69;92.22;98183.56;4169920;28;20619;-81
2023/06/22 01:04:00;;;;;;;7.53;6.00;;;;;;;22.66;92.52;98192.72;4172146;28;20653;-81
2023/06/22 01:06:09;;;;;;;8.20;6.60;;;;;;;22.66;92.38;98202.53;4169814;28;20630;-81
2023/06/22 01:08:28;;;;;;;7.30;6.20;;;;;;;22.61;92.05;98188.94;4170933;28;20625;-80
2023/06/22 01:10:37;;;;;;;9.13;6.90;;;;;;;22.55;92.87;98201.13;4157679;28;20631;-81
2023/06/22 01:12:45;;;;;;;7.37;5.90;;;;;;;22.51;92.37;98231.72;4173057;28;20661;-82
2023/06/22 01:14:52;;;;;;;8.20;6.40;;;;;;;22.48;93.54;98239.22;4160438;28;21233;-83
2023/06/22 01:16:57;;;;;;;7.17;5.67;;;;;;;22.44;93.54;98244.03;4150532;28;20663;-82
2023/06/22 01:19:17;;;;;;;13.00;6.70;;;;;;;22.40;93.53;98256.06;4167439;28;20725;-83
2023/06/22 01:21:23;;;;;;;9.43;6.87;;;;;;;22.34;94.16;98283.34;4182847;28;20737;-83
2023/06/22 01:23:36;;;;;;;10.80;7.13;;;;;;;22.32;94.37;98289.81;4153772;28;20644;-82
2023/06/22 01:25:48;;;;;;;8.50;6.53;;;;;;;22.26;94.35;98272.72;4142865;28;20657;-82
2023/06/22 01:28:00;;;;;;;8.80;6.10;;;;;;;22.23;94.86;98268.75;4119569;28;21335;-83
2023/06/22 01:30:06;;;;;;;7.50;5.50;;;;;;;22.20;94.48;98271.72;4176041;28;20626;-82
2023/06/22 01:32:11;;;;;;;7.93;6.00;;;;;;;22.19;95.09;98273.56;4177981;28;21066;-83
2023/06/22 01:34:15;;;;;;;8.73;6.40;;;;;;;22.16;95.41;98259.78;4158156;28;20672;-83
2023/06/22 01:36:19;;;;;;;7.43;6.03;;;;;;;22.13;94.93;98246.81;4171345;28;20645;-82
2023/06/22 01:38:22;;;;;;;7.23;6.07;;;;;;;22.11;94.87;98240.88;4169123;28;20678;-83
2023/06/22 01:40:26;;;;;;;8.67;6.20;;;;;;;22.10;94.87;98256.00;4161818;28;20648;-83
2023/06/22 01:42:30;;;;;;;10.37;8.10;;;;;;;22.12;95.28;98266.44;4152502;28;21239;-82
2023/06/22 01:44:33;;;;;;;9.70;7.83;;;;;;;22.12;95.94;98261.97;4163808;28;21191;-82
2023/06/22 01:46:39;;;;;;;8.57;6.57;;;;;;;22.12;95.26;98250.50;4171289;28;20616;-83
2023/06/22 01:48:43;;;;;;;7.00;6.10;;;;;;;22.07;95.01;98248.38;4119859;28;20649;-82
2023/06/22 01:50:46;;;;;;;7.10;6.27;;;;;;;22.03;95.51;98240.91;4115485;28;21244;-83
2023/06/22 01:52:50;;;;;;;9.83;7.50;;;;;;;22.00;95.40;98238.59;4144678;28;20662;-82
2023/06/22 01:54:53;;;;;;;8.50;6.30;;;;;;;21.97;95.48;98236.28;4129326;28;21069;-82
2023/06/22 01:56:57;;;;;;;11.47;7.23;;;;;;;21.97;95.49;98241.59;4164205;28;20743;-82
2023/06/22 01:59:06;;;;;;;8.03;6.47;;;;;;;21.95;96.46;98239.09;4161944;28;20636;-83
2023/06/22 02:01:12;;;;;;;8.77;6.80;;;;;;;21.94;95.85;98236.63;4149012;28;21109;-82
2023/06/22 02:03:19;;;;;;;9.67;7.70;;;;;;;21.93;96.05;98234.94;4132145;28;21069;-82
2023/06/22 02:05:25;;;;;;;7.40;6.47;;;;;;;21.91;95.97;98231.66;4159331;28;20636;-82
2023/06/22 02:07:33;;;;;;;7.47;6.67;;;;;;;21.88;96.24;98227.50;4152229;28;20665;-83
2023/06/22 02:09:40;;;;;;;12.03;7.40;;;;;;;21.83;96.48;98226.34;4130043;28;20783;-82
2023/06/22 02:11:45;;;;;;;10.23;6.77;;;;;;;21.78;96.31;98231.34;4147144;28;20738;-83
2023/06/22 02:13:50;;;;;;;10.40;6.80;;;;;;;21.76;96.19;98250.09;4150981;28;20648;-82
2023/06/22 02:15:55;;;;;;;8.60;6.90;;;;;;;21.76;96.11;98251.94;4163081;28;20638;-82
2023/06/22 02:17:58;;;;;;;11.03;6.90;;;;;;;21.76;96.57;98244.78;4161232;28;20686;-83
2023/06/22 02:20:08;;;;;;;8.90;6.73;;;;;;;21.78;96.34;98264.06;4141434;28;20703;-83
2023/06/22 02:22:12;;;;;;;7.30;6.13;;;;;;;21.81;96.75;98252.25;4128982;28;23864;-83
2023/06/22 02:24:15;;;;;;;8.87;7.13;;;;;;;21.81;96.81;98246.94;4144199;28;20996;-82
2023/06/22 02:26:19;;;;;;;7.77;6.40;;;;;;;21.79;96.49;98233.00;4118463;28;21489;-82
2023/06/22 02:28:22;;;;;;;8.20;6.87;;;;;;;21.77;96.73;98235.00;4159620;28;20722;-83
2023/06/22 02:30:25;;;;;;;8.53;7.10;;;;;;;21.75;96.38;98247.63;4139776;28;20643;-82
2023/06/22 02:32:29;;;;;;;8.60;7.20;;;;;;;21.76;96.80;98249.28;4153094;28;20692;-83
2023/06/22 02:34:33;;;;;;;9.00;6.63;;;;;;;21.77;96.40;98245.63;4152932;28;21414;-82
2023/06/22 02:36:38;;;;;;;7.83;6.87;;;;;;;21.81;96.56;98246.94;4134680;28;21193;-82
2023/06/22 02:38:48;;;;;;;9.33;7.80;;;;;;;21.81;95.90;98241.63;4162153;28;20694;-82
2023/06/22 02:40:51;;;;;;;11.17;7.67;;;;;;;21.81;96.39;98231.00;4135768;28;20806;-82
2023/06/22 02:42:55;;;;;;;13.03;7.57;;;;;;;21.82;96.28;98232.66;4158232;28;20693;-83
2023/06/22 02:44:58;;;;;;;9.20;7.30;;;;;;;21.83;96.29;98223.69;4154024;28;20664;-82
2023/06/22 02:47:01;;;;;;;10.57;7.63;;;;;;;21.83;96.54;98213.06;4140045;28;23175;-83
2023/06/22 02:49:05;;;;;;;11.13;7.63;;;;;;;21.82;96.28;98217.53;4120564;28;20640;-82
2023/06/22 02:51:09;;;;;;;9.73;7.60;;;;;;;21.79;96.45;98217.88;4117579;28;20636;-82
2023/06/22 02:53:15;;;;;;;8.20;6.83;;;;;;;21.79;95.99;98220.53;4127975;28;21209;-83
2023/06/22 02:55:23;;;;;;;10.37;7.87;;;;;;;21.80;96.50;98219.56;4139908;28;20663;-82
2023/06/22 02:57:31;;;;;;;9.77;7.60;;;;;;;21.82;96.11;98220.22;4121250;28;20630;-82
2023/06/22 02:59:34;;;;;;;9.73;7.60;;;;;;;21.83;96.46;98231.66;4167525;28;21007;-83
2023/06/22 03:01:43;;;;;;;9.50;7.30;;;;;;;21.81;96.48;98218.56;4161258;28;20721;-83
2023/06/22 03:04:01;;;;;;;9.93;7.57;;;;;;;21.80;96.80;98202.81;4152697;28;20637;-82
2023/06/22 03:06:05;;;;;;;9.63;7.37;;;;;;;21.81;96.50;98209.75;4153877;28;20668;-83
2023/06/22 03:08:08;;;;;;;10.33;8.27;;;;;;;21.84;96.21;98210.22;4108691;28;20645;-82
2023/06/22 03:10:15;;;;;;;9.23;7.90;;;;;;;21.86;95.92;98212.72;4169279;28;20694;-82
2023/06/22 03:12:18;;;;;;;13.00;8.30;;;;;;;21.85;95.76;98217.22;4140194;28;20635;-83
2023/06/22 03:14:28;;;;;;;10.17;7.87;;;;;;;21.83;96.12;98219.22;4118079;28;20683;-82
2023/06/22 03:16:31;;;;;;;13.23;8.33;;;;;;;21.82;95.87;98211.41;4137491;28;20631;-83
2023/06/22 03:18:35;;;;;;;9.07;7.30;;;;;;;21.81;95.70;98207.09;4147439;28;20645;-83
2023/06/22 03:20:39;;;;;;;10.57;7.53;;;;;;;21.78;95.85;98197.66;4122084;28;20652;-83
2023/06/22 03:22:44;;;;;;;10.13;7.47;;;;;;;21.78;96.08;98192.34;4151277;28;20686;-83
2023/06/22 03:24:48;;;;;;;9.03;6.73;;;;;;;21.73;96.57;98193.84;4134132;28;20641;-83
2023/06/22 03:26:52;;;;;;;9.50;7.80;;;;;;;21.72;96.29;98180.75;4160985;28;21418;-83
2023/06/22 03:28:56;;;;;;;11.13;7.70;;;;;;;21.68;96.36;98190.88;4115606;28;20740;-82
2023/06/22 03:30:59;;;;;;;11.90;8.43;;;;;;;21.65;96.71;98188.56;4146185;28;20664;-83
2023/06/22 03:33:05;;;;;;;9.43;7.77;;;;;;;21.62;96.03;98191.56;4104286;28;20647;-83
2023/06/22 03:35:10;;;;;;;9.67;8.40;;;;;;;21.60;97.32;98190.88;4145026;28;20693;-83
2023/06/22 03:37:13;;;;;;;17.10;8.33;;;;;;;21.56;97.87;98208.19;4138638;28;21505;-82
2023/06/22 03:39:17;;;;;;;11.00;8.97;;;;;;;21.58;96.99;98194.72;4152339;28;20634;-83
2023/06/22 03:41:21;;;;;;;10.73;8.70;;;;;;;21.63;97.33;98200.34;4169038;28;20733;-82
2023/06/22 03:43:26;;;;;;;11.20;8.57;;;;;;;21.62;96.70;98202.19;4163953;28;24327;-83
2023/06/22 03:45:31;;;;;;;11.43;8.20;;;;;;;21.63;96.94;98203.81;4144839;28;21414;-83
2023/06/22 03:47:35;;;;;;;11.97;8.17;;;;;;;21.64;97.10;98199.38;4172507;28;20631;-83
2023/06/22 03:49:39;;;;;;;11.20;8.33;;;;;;;21.64;96.99;98200.19;4171707;28;20655;-83
2023/06/22 03:51:42;;;;;;;10.80;8.30;;;;;;;21.66;96.48;98206.13;4122738;28;20630;-83
2023/06/22 03:53:46;;;;;;;9.97;8.60;;;;;;;21.70;96.54;98202.16;4125955;28;20650;-83
2023/06/22 03:55:51;;;;;;;12.53;8.60;;;;;;;21.70;96.36;98210.13;4147215;28;20663;-82
2023/06/22 03:57:56;;;;;;;10.33;7.80;;;;;;;21.73;96.36;98201.00;4138302;28;20673;-83
2023/06/22 04:00:02;;;;;;;11.43;8.43;;;;;;;21.71;95.74;98201.16;4132409;28;20771;-83
2023/06/22 04:02:16;;;;;;;12.70;9.10;;;;;;;21.75;96.34;98206.97;4146735;28;20674;-82
2023/06/22 04:04:19;;;;;;;11.80;8.30;;;;;;;21.78;96.03;98202.13;4115890;28;23082;-83
2023/06/22 04:06:23;;;;;;;10.67;8.60;;;;;;;21.79;96.07;98199.28;4139845;28;20667;-83
2023/06/22 04:08:26;;;;;;;11.20;8.53;;;;;;;21.80;95.56;98193.00;4158990;28;20665;-83
2023/06/22 04:10:30;;;;;;;12.77;9.20;;;;;;;21.82;95.84;98201.59;4154965;28;21402;-82
2023/06/22 04:12:33;;;;;;;12.20;8.30;;;;;;;21.85;95.18;98201.28;4168508;28;20634;-83
2023/06/22 04:14:37;;;;;;;11.63;8.50;;;;;;;21.87;95.38;98195.78;4121204;28;21211;-83
2023/06/22 04:16:41;;;;;;;11.20;8.37;;;;;;;21.90;95.51;98195.44;4104034;28;21449;-83
2023/06/22 04:18:45;;;;;;;10.90;8.67;;;;;;;21.92;95.21;98193.44;4142664;28;20638;-83
2023/06/22 04:20:48;;;;;;;10.63;7.90;;;;;;;21.95;95.50;98185.97;4164304;28;20624;-82
2023/06/22 04:22:51;;;;;;;10.73;8.87;;;;;;;21.97;95.04;98183.94;4156215;28;20634;-84
2023/06/22 04:24:54;;;;;;;11.67;8.97;;;;;;;22.01;95.10;98187.09;4183249;28;20708;-83
2023/06/22 04:27:00;;;;;;;10.80;8.80;;;;;;;22.03;95.11;98177.13;4161111;28;20998;-83
2023/06/22 04:29:05;;;;;;;10.63;8.40;;;;;;;22.09;94.50;98174.59;4164235;28;20638;-83
2023/06/22 04:31:08;;;;;;;10.27;8.23;;;;;;;22.11;95.54;98174.44;4146249;28;20649;-83
2023/06/22 04:33:13;;;;;;;10.43;8.60;;;;;;;22.16;94.17;98174.72;4131684;28;21137;-83
2023/06/22 04:35:17;;;;;;;10.03;8.70;;;;;;;22.21;94.22;98170.59;4105979;28;20654;-83
2023/06/22 04:37:23;;;;;;;12.23;9.30;;;;;;;22.20;94.31;98166.22;4139204;28;20743;-84
2023/06/22 04:39:27;;;;;;;11.70;9.17;;;;;;;22.23;93.92;98168.56;4131805;28;20756;-83
2023/06/22 04:41:36;;;;;;;11.57;9.30;;;;;;;22.25;93.70;98161.25;4161973;28;20672;-83
2023/06/22 04:43:40;;;;;;;10.43;8.50;;;;;;;22.27;94.02;98160.06;4142640;28;20765;-83
2023/06/22 04:45:43;;;;;;;12.97;9.10;;;;;;;22.28;93.17;98161.75;4122386;28;20639;-83
2023/06/22 04:47:47;;;;;;;10.63;8.97;;;;;;;22.33;93.06;98169.19;4126131;28;21135;-83
2023/06/22 04:49:52;;;;;;;10.93;8.20;;;;;;;22.33;93.56;98166.53;4147645;28;20631;-83
2023/06/22 04:51:55;;;;;;;14.17;9.10;;;;;;;22.35;93.14;98168.00;4116175;28;20655;-83
2023/06/22 04:54:00;;;;;;;12.13;9.10;;;;;;;22.38;93.03;98164.97;4151856;28;20653;-83
2023/06/22 04:56:04;;;;;;;9.73;8.07;;;;;;;22.44;92.92;98161.63;4159503;28;20698;-83
2023/06/22 04:58:08;;;;;;;9.60;8.00;;;;;;;22.53;92.58;98165.88;4141845;28;23998;-83
2023/06/22 05:00:13;;;;;;;10.17;8.37;;;;;;;22.61;92.73;98162.34;4152108;28;20642;-83
2023/06/22 05:02:16;;;;;;;9.07;7.53;;;;;;;22.68;91.50;98165.97;4148484;28;20835;-83
2023/06/22 05:04:20;;;;;;;9.90;8.00;;;;;;;22.70;91.52;98153.28;4129027;28;20733;-89
2023/06/22 05:06:27;;;;;;;9.87;7.63;;;;;;;22.79;92.53;98150.38;4149112;28;21101;-81
2023/06/22 05:08:31;;;;;;;11.27;8.50;;;;;;;22.86;91.69;98149.50;4161113;28;20692;-81
2023/06/22 05:10:34;;;;;;;8.57;7.03;;;;;;;22.96;91.38;98158.09;4166986;28;20738;-81
2023/06/22 05:12:37;;;;;;;7.90;7.00;;;;;;;23.00;91.18;98153.25;4171099;28;20679;-82
2023/06/22 05:14:40;;;;;;;10.60;7.73;;;;;;;23.04;90.74;98147.38;4153387;28;20633;-81
2023/06/22 05:16:44;;;;;;;8.40;7.20;;;;;;;23.11;90.52;98153.66;4170806;28;20667;-81
2023/06/22 05:18:47;;;;;;;10.63;7.30;;;;;;;23.14;90.58;98144.44;4161636;28;20681;-81
2023/06/22 05:20:51;;;;;;;7.87;7.00;;;;;;;23.23;91.19;98146.88;4168615;28;20644;-81
2023/06/22 05:22:56;;;;;;;8.77;6.87;;;;;;;23.29;89.99;98149.63;4168802;28;20631;-81
2023/06/22 05:24:59;;;;;;;8.90;7.50;;;;;;;23.33;89.81;98140.28;4174667;28;20699;-81
2023/06/22 05:27:02;;;;;;;8.30;6.80;;;;;;;23.37;89.25;98146.88;4173743;28;20726;-81
2023/06/22 05:29:06;;;;;;;15.07;7.63;;;;;;;23.44;89.01;98147.81;4148035;28;20625;-82
2023/06/22 05:31:09;;;;;;;9.97;7.07;;;;;;;23.54;89.09;98144.88;4168393;28;20635;-82
2023/06/22 05:33:13;;;;;;;7.97;6.00;;;;;;;23.60;87.76;98142.28;4158609;28;20641;-82
2023/06/22 05:35:17;;;;;;;7.33;6.47;;;;;;;23.72;87.38;98135.50;4171180;28;20737;-84
2023/06/22 05:37:20;;;;;;;7.33;6.37;;;;;;;23.85;88.26;98146.34;4166532;28;20632;-85
2023/06/22 05:39:25;;;;;;;9.30;7.10;;;;;;;24.01;87.46;98149.66;4154713;28;20670;-84
2023/06/22 05:41:29;;;;;;;10.27;7.23;;;;;;;24.19;86.99;98145.56;4171735;28;20623;-85
2023/06/22 05:43:34;;;;;;;9.40;6.63;;;;;;;24.43;85.40;98147.91;4165590;28;20631;-88
2023/06/22 05:45:37;;;;;;;7.67;6.67;;;;;;;24.62;85.05;98147.28;4148745;28;20640;-89
2023/06/22 05:47:41;;;;;;;7.83;6.73;;;;;;;24.85;84.81;98143.41;4171241;28;20627;-90
2023/06/22 05:49:44;;;;;;;7.53;5.80;;;;;;;25.00;83.06;98140.69;4168898;28;20631;-90
2023/06/22 05:51:48;;;;;;;7.83;7.00;;;;;;;25.18;83.93;98133.84;4170658;28;20638;-90
2023/06/22 05:53:51;;;;;;;7.73;6.60;;;;;;;25.42;82.73;98138.75;4172555;28;21248;-88
2023/06/22 05:55:56;;;;;;;10.10;7.03;;;;;;;25.52;81.19;98134.69;4173380;28;20729;-88
2023/06/22 05:58:00;;;;;;;9.90;7.90;;;;;;;25.63;81.02;98136.81;4168973;28;20617;-88
2023/06/22 06:00:06;;;;;;;6.70;5.30;;;;;;;25.85;81.46;98139.22;4166204;28;20997;-90
2023/06/22 06:02:10;;;;;;;7.70;6.30;;;;;;;25.98;80.84;98143.81;4155176;28;20643;-88
2023/06/22 06:04:13;;;;;;;8.83;6.77;;;;;;;26.16;79.37;98151.09;4135198;28;21289;-88
2023/06/22 06:06:18;;;;;;;8.63;6.30;;;;;;;26.31;78.28;98141.09;4153111;28;20707;-86
2023/06/22 06:08:21;;;;;;;9.00;6.60;;;;;;;26.44;78.59;98148.34;4141241;28;20718;-83
2023/06/22 06:10:25;;;;;;;7.30;6.20;;;;;;;26.46;78.29;98143.59;4147439;28;20633;-83
2023/06/22 06:12:29;;;;;;;7.47;5.60;;;;;;;26.57;78.70;98147.34;4150717;28;21433;-83
2023/06/22 06:14:33;;;;;;;6.47;5.87;;;;;;;26.79;78.69;98146.16;4167405;28;20704;-83
2023/06/22 06:16:36;;;;;;;7.83;6.07;;;;;;;26.92;77.10;98142.69;4168670;28;20735;-83
2023/06/22 06:18:39;;;;;;;8.67;6.10;;;;;;;27.02;77.51;98130.53;4159705;28;21298;-83
2023/06/22 06:20:44;;;;;;;8.13;6.10;;;;;;;27.16;75.39;98135.69;4103281;28;20635;-83
2023/06/22 06:22:47;;;;;;;9.93;6.77;;;;;;;27.29;75.27;98134.84;4113314;28;20650;-82
2023/06/22 06:24:51;;;;;;;8.57;6.10;;;;;;;27.25;75.24;98126.41;4116572;28;20633;-84
2023/06/22 06:26:55;;;;;;;8.10;6.20;;;;;;;27.13;76.06;98127.25;4107743;28;20728;-83
2023/06/22 06:29:02;;;;;;;6.73;5.70;;;;;;;26.99;76.21;98119.41;4121885;28;20711;-83
2023/06/22 06:31:07;;;;;;;7.30;5.60;;;;;;;26.99;76.09;98119.41;4114273;28;20612;-81
2023/06/22 06:33:10;;;;;;;7.17;5.70;;;;;;;26.99;76.53;98108.69;4111722;28;25190;-81
2023/06/22 06:35:15;;;;;;;7.90;6.03;;;;;;;26.85;76.35;98107.84;4162897;28;20637;-79
2023/06/22 06:37:19;;;;;;;7.70;5.73;;;;;;;26.87;77.42;98104.97;4171523;28;21122;-78
2023/06/22 06:39:23;;;;;;;6.80;5.70;;;;;;;26.83;75.72;98103.72;4166385;28;20620;-78
2023/06/22 06:41:27;;;;;;;7.00;5.63;;;;;;;26.71;76.73;98105.34;4172839;28;20628;-79
2023/06/22 06:43:30;;;;;;;6.40;5.80;;;;;;;26.82;76.79;98108.25;4147300;28;21430;-79
2023/06/22 06:45:35;;;;;;;7.80;6.03;;;;;;;26.98;76.26;98110.53;4162213;28;20636;-78
2023/06/22 06:47:39;;;;;;;8.80;6.40;;;;;;;26.95;75.58;98110.13;4181421;28;20631;-78
2023/06/22 06:49:43;;;;;;;9.80;6.57;;;;;;;27.03;75.59;98104.56;4167608;28;21110;-79
2023/06/22 06:51:46;;;;;;;7.10;6.30;;;;;;;27.32;75.79;98111.16;4174706;28;20739;-79
2023/06/22 06:53:50;;;;;;;6.57;5.80;;;;;;;27.61;76.23;98113.38;4154620;28;20634;-79
2023/06/22 06:55:54;;;;;;;7.53;5.67;;;;;;;27.86;73.48;98123.22;4113311;28;21205;-78
2023/06/22 06:57:57;;;;;;;6.33;5.27;;;;;;;28.02;74.18;98126.25;4110824;28;21120;-81
2023/06/22 07:00:01;;;;;;;7.27;5.97;;;;;;;28.27;73.46;98129.06;4108518;28;21535;-79
2023/06/22 07:02:06;;;;;;;6.63;5.30;;;;;;;28.51;72.13;98131.81;4087366;28;20727;-78
2023/06/22 07:04:10;;;;;;;8.10;5.63;;;;;;;28.74;73.53;98126.75;4124090;28;23415;-79
2023/06/22 07:06:16;;;;;;;6.70;5.63;;;;;;;29.00;71.26;98138.94;4125966;28;20680;-79
2023/06/22 07:08:20;;;;;;;8.90;5.83;;;;;;;29.18;71.24;98140.84;4158900;28;21232;-78
2023/06/22 07:10:24;;;;;;;7.30;5.50;;;;;;;29.25;69.96;98128.22;4112989;28;20614;-78
2023/06/22 07:12:28;;;;;;;6.73;5.40;;;;;;;29.33;70.23;98125.25;4168869;28;20731;-79
2023/06/22 07:14:32;;;;;;;6.23;5.43;;;;;;;29.36;70.67;98127.50;4173431;28;20674;-79
2023/06/22 07:16:35;;;;;;;6.47;5.37;;;;;;;29.57;69.72;98123.38;4167913;28;21597;-79
2023/06/22 07:18:41;;;;;;;8.50;6.00;;;;;;;29.65;69.28;98123.06;4159123;28;21038;-79
2023/06/22 07:20:45;;;;;;;7.93;5.43;;;;;;;29.88;68.00;98122.44;4156816;28;20645;-79
2023/06/22 07:22:49;;;;;;;6.37;5.10;;;;;;;30.01;68.42;98123.94;4121743;28;20641;-79
2023/06/22 07:24:53;;;;;;;6.50;5.37;;;;;;;30.03;68.42;98112.94;4113365;28;20644;-78
2023/06/22 07:26:58;;;;;;;6.57;5.27;;;;;;;30.16;68.44;98113.59;4116725;28;21257;-79
2023/06/22 07:29:04;;;;;;;7.43;6.10;;;;;;;30.30;67.70;98112.38;4170784;28;20642;-79
2023/06/22 07:31:09;;;;;;;5.83;4.73;;;;;;;30.28;67.74;98102.84;4103905;28;20641;-79
2023/06/22 07:33:13;;;;;;;6.73;5.30;;;;;;;30.34;68.20;98093.91;4134168;28;20644;-79
2023/06/22 07:35:18;;;;;;;5.63;4.57;;;;;;;30.42;66.88;98085.50;4107886;28;20633;-79
2023/06/22 07:37:22;;;;;;;5.73;4.90;;;;;;;30.56;66.94;98085.09;4156253;28;21745;-86
2023/06/22 07:39:26;;;;;;;7.23;4.97;;;;;;;30.74;66.77;98071.53;4167047;28;20995;-81
2023/06/22 07:41:29;;;;;;;5.80;4.60;;;;;;;30.72;66.23;98069.09;4160831;28;20661;-83
2023/06/22 07:43:34;;;;;;;6.30;4.60;;;;;;;30.83;66.00;98068.28;4160173;28;20665;-81
2023/06/22 07:45:40;;;;;;;6.60;5.03;;;;;;;30.84;65.84;98066.38;4119332;28;20681;-81
2023/06/22 07:47:44;;;;;;;6.33;4.90;;;;;;;30.86;65.57;98043.56;4138757;28;20633;-82
2023/06/22 07:49:49;;;;;;;5.70;4.90;;;;;;;31.02;65.40;98049.13;4130620;28;20766;-81
2023/06/22 07:51:54;;;;;;;6.40;5.33;;;;;;;31.12;66.37;98046.66;4135883;28;20632;-81
2023/06/22 07:53:59;;;;;;;6.47;4.77;;;;;;;31.18;65.34;98040.31;4130366;28;20630;-81
2023/06/22 07:56:06;;;;;;;7.33;5.63;;;;;;;31.26;64.79;98041.84;4159353;28;20640;-81
2023/06/22 07:58:10;;;;;;;8.63;4.50;;;;;;;31.38;65.07;98037.25;4156726;28;20652;-81
2023/06/22 08:00:15;;;;;;;5.10;4.60;;;;;;;31.50;64.23;98030.84;4168637;28;22415;-81
2023/06/22 08:02:22;;;;;;;6.40;5.27;;;;;;;31.51;63.28;98027.91;4136985;28;21943;-81
2023/06/22 08:04:27;;;;;;;5.43;4.23;;;;;;;31.59;63.91;98029.38;4161880;28;20644;-81
2023/06/22 08:06:31;;;;;;;7.10;4.53;;;;;;;31.58;63.51;98028.56;4133326;28;21294;-81
2023/06/22 08:08:35;;;;;;;6.27;4.40;;;;;;;31.67;63.82;98024.44;4137509;28;20679;-81
2023/06/22 08:10:40;;;;;;;5.57;4.13;;;;;;;31.81;63.96;98027.72;4124062;28;21225;-82
2023/06/22 08:12:45;;;;;;;5.70;4.50;;;;;;;31.83;62.01;98030.97;4124341;28;20660;-82
2023/06/22 08:14:50;;;;;;;7.50;4.43;;;;;;;31.90;62.22;98027.91;4174876;28;20638;-82
2023/06/22 08:16:53;;;;;;;5.17;3.80;;;;;;;32.10;63.25;98027.50;4153681;28;21447;-82
2023/06/22 08:18:59;;;;;;;5.00;3.83;;;;;;;32.11;60.77;98013.75;4163488;28;20660;-82
2023/06/22 08:21:03;;;;;;;6.37;4.17;;;;;;;32.21;60.84;98005.84;4154902;28;21349;-82
2023/06/22 08:23:09;;;;;;;6.53;3.73;;;;;;;32.33;60.41;98009.31;4143712;28;20624;-82
2023/06/22 08:25:15;;;;;;;5.87;3.70;;;;;;;32.47;61.05;98016.09;4138618;28;20672;-82
2023/06/22 08:27:21;;;;;;;5.40;4.53;;;;;;;32.61;61.17;98023.66;4153614;28;20727;-82
2023/06/22 08:29:26;;;;;;;7.43;4.20;;;;;;;32.65;60.06;98034.78;4162905;28;20641;-82
2023/06/22 08:31:30;;;;;;;6.43;4.10;;;;;;;32.74;59.50;98028.72;4134728;28;20633;-81
2023/06/22 08:33:36;;;;;;;5.43;3.73;;;;;;;32.82;60.12;98033.72;4137431;28;20640;-82
2023/06/22 08:35:52;;;;;;;5.80;3.90;;;;;;;32.93;59.01;98036.38;4161844;28;20640;-82
2023/06/22 08:37:57;;;;;;;5.87;4.17;;;;;;;32.98;58.52;98049.16;4128701;28;20661;-81
2023/06/22 08:40:04;;;;;;;6.50;3.40;;;;;;;33.06;58.52;98054.16;4137171;28;20634;-81
2023/06/22 08:42:09;;;;;;;4.27;3.20;;;;;;;33.21;60.10;98051.69;4159964;28;20629;-82
2023/06/22 08:44:13;;;;;;;5.60;3.83;;;;;;;33.32;59.08;98051.59;4161501;28;20639;-82
2023/06/22 08:46:21;;;;;;;4.97;4.10;;;;;;;33.23;58.98;98053.09;4146491;28;20660;-82
2023/06/22 08:48:26;;;;;;;6.23;3.70;;;;;;;33.07;58.43;98051.19;4121533;28;21198;-82
2023/06/22 08:50:32;;;;;;;3.97;3.20;;;;;;;32.91;58.72;98057.41;4157645;28;20694;-81
2023/06/22 08:52:43;;;;;;;6.60;3.90;;;;;;;32.95;59.46;98055.88;4125097;28;20983;-81
2023/06/22 08:54:56;;;;;;;6.63;4.00;;;;;;;33.15;58.48;98058.09;4148527;28;21250;-81
2023/06/22 08:57:05;;;;;;;5.83;4.23;;;;;;;33.41;60.88;98066.34;4127520;28;20739;-81
2023/06/22 08:59:11;;;;;;;5.33;3.60;;;;;;;33.59;59.62;98066.91;4121520;28;24091;-81
2023/06/22 09:01:16;;;;;;;6.47;3.87;;;;;;;33.82;60.47;98076.69;4154045;28;20688;-80
2023/06/22 09:03:20;;;;;;;6.97;4.20;;;;;;;34.01;60.09;98071.56;4104559;28;23666;-81
2023/06/22 09:05:25;;;;;;;6.07;4.07;;;;;;;33.77;57.31;98061.19;4118512;28;20655;-83
2023/06/22 09:07:29;;;;;;;8.20;4.33;;;;;;;33.44;57.26;98055.88;4136803;28;20784;-83
2023/06/22 09:09:33;;;;;;;5.10;3.53;;;;;;;33.20;58.04;98050.88;4146628;28;20668;-82
2023/06/22 09:11:38;;;;;;;6.03;4.27;;;;;;;33.12;58.04;98045.88;4148225;28;21275;-83
2023/06/22 09:13:46;;;;;;;4.93;3.90;;;;;;;33.28;58.32;98042.31;4152564;28;20631;-83
2023/06/22 09:15:52;;;;;;;6.53;4.13;;;;;;;33.35;58.46;98034.88;4149203;28;22422;-83
2023/06/22 09:17:57;;;;;;;6.00;3.87;;;;;;;33.61;57.63;98026.06;4167560;28;20730;-83
2023/06/22 09:20:10;;;;;;;6.17;3.60;;;;;;;33.75;58.45;98024.59;4169117;28;20633;-81
2023/06/22 09:22:15;;;;;;;6.10;4.27;;;;;;;33.64;57.11;98018.22;4143167;28;20638;-83
2023/06/22 09:24:19;;;;;;;6.20;4.00;;;;;;;33.27;58.42;98016.31;4158557;28;21522;-83
2023/06/22 09:26:24;;;;;;;7.67;3.80;;;;;;;33.17;58.63;98016.19;4139709;28;20930;-83
2023/06/22 09:28:31;;;;;;;6.10;3.90;;;;;;;33.06;59.67;98019.81;4156587;28;21490;-83
2023/06/22 09:30:34;;;;;;;7.23;4.23;;;;;;;32.99;61.17;98021.06;4152152;28;20665;-83
2023/06/22 09:32:39;;;;;;;6.93;3.57;;;;;;;33.24;59.71;98022.22;4167747;28;20644;-83
2023/06/22 09:34:43;;;;;;;7.17;4.00;;;;;;;33.22;60.57;98024.38;4169600;28;20676;-83
2023/06/22 09:36:50;;;;;;;5.70;3.90;;;;;;;32.99;60.26;98031.88;4168543;28;21007;-83
2023/06/22 09:38:58;;;;;;;9.23;4.73;;;;;;;32.81;59.89;98048.31;4148255;28;20642;-83
2023/06/22 09:41:01;;;;;;;5.93;3.83;;;;;;;32.66;60.64;98034.53;4150290;28;20629;-83
2023/06/22 09:43:05;;;;;;;8.77;4.07;;;;;;;32.66;61.05;98050.75;4165494;28;21257;-83
2023/06/22 09:45:09;;;;;;;7.37;4.33;;;;;;;32.83;60.10;98028.06;4146263;28;20641;-82
2023/06/22 09:47:12;;;;;;;5.83;4.23;;;;;;;32.87;59.40;98020.28;4169883;28;20629;-82
2023/06/22 09:49:17;;;;;;;5.30;3.70;;;;;;;33.05;60.52;98001.13;4171002;28;20621;-82